sensor_id;sensor_type;location;lat;lon;timestamp;temperature;humidity
19968;DHT22;10145;49.152;9.282;2022-08-03T04:00:41;15.90;99.90
19968;DHT22;10145;49.152;9.282;2022-08-03T04:03:09;16.00;99.90
19968;DHT22;10145;49.152;9.282;2022-08-03T04:05:36;16.00;99.90
19968;DHT22;10145;49.152;9.282;2022-08-03T04:08:20;15.90;99.90
19968;DHT22;10145;49.152;9.282;2022-08-03T04:11:12;16.00;99.90
19968;DHT22;10145;49.152;9.282;2022-08-03T04:13:43;15.90;99.90
19968;DHT22;10145;49.152;9.282;2022-08-03T04:16:12;16.00;99.90
19968;DHT22;10145;49.152;9.282;2022-08-03T04:18:40;16.00;99.90
19968;DHT22;10145;49.152;9.282;2022-08-03T04:21:09;16.10;99.90
19968;DHT22;10145;49.152;9.282;2022-08-03T04:23:40;16.10;99.90
19968;DHT22;10145;49.152;9.282;2022-08-03T04:26:09;16.20;99.90
19968;DHT22;10145;49.152;9.282;2022-08-03T04:28:38;16.30;99.90
19968;DHT22;10145;49.152;9.282;2022-08-03T04:31:05;16.30;99.90
19968;DHT22;10145;49.152;9.282;2022-08-03T04:33:33;16.30;99.90
19968;DHT22;10145;49.152;9.282;2022-08-03T04:36:00;16.30;99.90
19968;DHT22;10145;49.152;9.282;2022-08-03T04:38:30;16.30;99.90
19968;DHT22;10145;49.152;9.282;2022-08-03T04:40:58;16.40;99.90
19968;DHT22;10145;49.152;9.282;2022-08-03T04:43:25;16.40;99.90
19968;DHT22;10145;49.152;9.282;2022-08-03T04:45:52;16.40;99.90
19968;DHT22;10145;49.152;9.282;2022-08-03T04:48:18;16.40;99.90
19968;DHT22;10145;49.152;9.282;2022-08-03T04:50:45;16.40;99.90
19968;DHT22;10145;49.152;9.282;2022-08-03T04:53:11;16.50;99.90
19968;DHT22;10145;49.152;9.282;2022-08-03T04:55:37;16.50;99.90
19968;DHT22;10145;49.152;9.282;2022-08-03T04:58:03;16.50;99.90
19968;DHT22;10145;49.152;9.282;2022-08-03T05:00:29;16.60;99.90
19968;DHT22;10145;49.152;9.282;2022-08-03T05:02:54;16.60;99.90
19968;DHT22;10145;49.152;9.282;2022-08-03T05:05:21;16.60;99.90
19968;DHT22;10145;49.152;9.282;2022-08-03T05:07:46;16.60;99.90
19968;DHT22;10145;49.152;9.282;2022-08-03T05:10:13;16.60;99.90
19968;DHT22;10145;49.152;9.282;2022-08-03T05:12:39;16.70;99.90
19968;DHT22;10145;49.152;9.282;2022-08-03T05:15:06;16.70;99.90
19968;DHT22;10145;49.152;9.282;2022-08-03T05:17:32;16.70;99.90
19968;DHT22;10145;49.152;9.282;2022-08-03T05:20:01;16.70;99.90
19968;DHT22;10145;49.152;9.282;2022-08-03T05:22:28;16.80;99.90
19968;DHT22;10145;49.152;9.282;2022-08-03T05:24:54;16.90;99.90
19968;DHT22;10145;49.152;9.282;2022-08-03T05:27:19;17.00;99.90
19968;DHT22;10145;49.152;9.282;2022-08-03T05:29:45;17.10;99.90
19968;DHT22;10145;49.152;9.282;2022-08-03T05:32:11;17.20;99.90
19968;DHT22;10145;49.152;9.282;2022-08-03T05:34:37;17.20;99.90
19968;DHT22;10145;49.152;9.282;2022-08-03T05:37:03;17.30;99.90
19968;DHT22;10145;49.152;9.282;2022-08-03T05:39:29;17.40;99.90
19968;DHT22;10145;49.152;9.282;2022-08-03T05:41:54;17.40;99.90
19968;DHT22;10145;49.152;9.282;2022-08-03T05:44:20;17.60;99.90
19968;DHT22;10145;49.152;9.282;2022-08-03T05:46:46;17.70;99.90
19968;DHT22;10145;49.152;9.282;2022-08-03T05:49:12;17.80;99.90
19968;DHT22;10145;49.152;9.282;2022-08-03T05:51:37;17.90;99.90
19968;DHT22;10145;49.152;9.282;2022-08-03T05:54:03;17.90;99.90
19968;DHT22;10145;49.152;9.282;2022-08-03T05:56:28;18.00;99.90
19968;DHT22;10145;49.152;9.282;2022-08-03T05:58:54;18.10;99.90
19968;DHT22;10145;49.152;9.282;2022-08-03T06:01:20;18.20;99.90
19968;DHT22;10145;49.152;9.282;2022-08-03T06:03:46;18.30;99.90
19968;DHT22;10145;49.152;9.282;2022-08-03T06:06:12;18.30;99.90
19968;DHT22;10145;49.152;9.282;2022-08-03T06:08:39;18.40;99.90
19968;DHT22;10145;49.152;9.282;2022-08-03T06:11:04;18.50;99.90
19968;DHT22;10145;49.152;9.282;2022-08-03T06:13:30;18.50;99.90
19968;DHT22;10145;49.152;9.282;2022-08-03T06:15:56;18.60;99.90
19968;DHT22;10145;49.152;9.282;2022-08-03T06:18:22;18.70;99.90
19968;DHT22;10145;49.152;9.282;2022-08-03T06:20:49;18.80;99.90
19968;DHT22;10145;49.152;9.282;2022-08-03T06:23:15;18.80;99.90
19968;DHT22;10145;49.152;9.282;2022-08-03T06:25:41;18.90;99.90
19968;DHT22;10145;49.152;9.282;2022-08-03T06:28:07;19.00;99.90
19968;DHT22;10145;49.152;9.282;2022-08-03T06:30:32;19.10;99.90
19968;DHT22;10145;49.152;9.282;2022-08-03T06:32:58;19.20;99.90
19968;DHT22;10145;49.152;9.282;2022-08-03T06:35:23;19.30;99.70
19968;DHT22;10145;49.152;9.282;2022-08-03T06:37:50;19.40;99.60
19968;DHT22;10145;49.152;9.282;2022-08-03T06:40:24;19.50;99.50
19968;DHT22;10145;49.152;9.282;2022-08-03T06:43:01;19.80;99.50
19968;DHT22;10145;49.152;9.282;2022-08-03T06:45:27;19.80;99.10
19968;DHT22;10145;49.152;9.282;2022-08-03T06:50:29;20.10;98.70
19968;DHT22;10145;49.152;9.282;2022-08-03T06:52:55;20.20;98.40
19968;DHT22;10145;49.152;9.282;2022-08-03T06:55:20;20.40;98.30
19968;DHT22;10145;49.152;9.282;2022-08-03T06:57:46;20.40;98.00
19968;DHT22;10145;49.152;9.282;2022-08-03T07:00:12;20.50;97.60
19968;DHT22;10145;49.152;9.282;2022-08-03T07:02:39;20.70;97.70
19968;DHT22;10145;49.152;9.282;2022-08-03T07:05:05;20.90;96.80
19968;DHT22;10145;49.152;9.282;2022-08-03T07:07:31;21.20;96.50
19968;DHT22;10145;49.152;9.282;2022-08-03T07:09:56;21.30;96.00
19968;DHT22;10145;49.152;9.282;2022-08-03T07:12:22;21.50;95.20
19968;DHT22;10145;49.152;9.282;2022-08-03T07:14:47;21.80;95.20
19968;DHT22;10145;49.152;9.282;2022-08-03T07:17:13;22.00;94.60
19968;DHT22;10145;49.152;9.282;2022-08-03T07:19:38;22.20;94.30
19968;DHT22;10145;49.152;9.282;2022-08-03T07:22:04;22.40;93.90
19968;DHT22;10145;49.152;9.282;2022-08-03T07:24:30;22.60;93.80
19968;DHT22;10145;49.152;9.282;2022-08-03T07:26:56;22.80;93.60
19968;DHT22;10145;49.152;9.282;2022-08-03T07:29:21;23.00;93.70
19968;DHT22;10145;49.152;9.282;2022-08-03T07:31:47;23.20;92.60
19968;DHT22;10145;49.152;9.282;2022-08-03T07:34:12;23.40;91.80
19968;DHT22;10145;49.152;9.282;2022-08-03T07:36:38;23.50;91.80
19968;DHT22;10145;49.152;9.282;2022-08-03T07:39:04;23.70;91.20
19968;DHT22;10145;49.152;9.282;2022-08-03T07:41:30;24.00;90.90
19968;DHT22;10145;49.152;9.282;2022-08-03T07:43:56;24.20;90.10
19968;DHT22;10145;49.152;9.282;2022-08-03T07:46:22;24.50;90.20
19968;DHT22;10145;49.152;9.282;2022-08-03T07:48:47;24.70;89.40
19968;DHT22;10145;49.152;9.282;2022-08-03T07:51:13;24.80;88.60
19968;DHT22;10145;49.152;9.282;2022-08-03T07:53:38;25.10;87.10
19968;DHT22;10145;49.152;9.282;2022-08-03T07:56:04;25.10;86.90
19968;DHT22;10145;49.152;9.282;2022-08-03T07:58:30;25.20;86.00
19968;DHT22;10145;49.152;9.282;2022-08-03T08:00:55;25.60;85.00
19968;DHT22;10145;49.152;9.282;2022-08-03T08:03:21;25.90;84.60
19968;DHT22;10145;49.152;9.282;2022-08-03T08:05:47;26.10;83.60
19968;DHT22;10145;49.152;9.282;2022-08-03T08:08:12;26.40;82.50
19968;DHT22;10145;49.152;9.282;2022-08-03T08:10:38;26.60;81.60
19968;DHT22;10145;49.152;9.282;2022-08-03T08:13:03;26.60;82.00
19968;DHT22;10145;49.152;9.282;2022-08-03T08:15:29;26.90;80.80
19968;DHT22;10145;49.152;9.282;2022-08-03T08:17:57;27.00;79.90
19968;DHT22;10145;49.152;9.282;2022-08-03T08:20:26;27.10;79.30
19968;DHT22;10145;49.152;9.282;2022-08-03T08:22:51;27.30;80.00
19968;DHT22;10145;49.152;9.282;2022-08-03T08:25:17;27.60;79.00
19968;DHT22;10145;49.152;9.282;2022-08-03T08:27:45;27.90;77.90
19968;DHT22;10145;49.152;9.282;2022-08-03T08:30:12;28.10;76.00
19968;DHT22;10145;49.152;9.282;2022-08-03T08:32:38;28.30;76.00
19968;DHT22;10145;49.152;9.282;2022-08-03T08:35:04;28.60;75.00
19968;DHT22;10145;49.152;9.282;2022-08-03T08:37:31;28.80;75.70
19968;DHT22;10145;49.152;9.282;2022-08-03T08:39:57;28.60;73.70
19968;DHT22;10145;49.152;9.282;2022-08-03T08:42:23;28.60;73.30
19968;DHT22;10145;49.152;9.282;2022-08-03T08:44:49;28.50;74.60
19968;DHT22;10145;49.152;9.282;2022-08-03T08:47:17;28.60;73.00
19968;DHT22;10145;49.152;9.282;2022-08-03T08:49:45;28.80;72.90
19968;DHT22;10145;49.152;9.282;2022-08-03T08:52:12;29.10;72.80
19968;DHT22;10145;49.152;9.282;2022-08-03T08:54:39;29.10;73.00
19968;DHT22;10145;49.152;9.282;2022-08-03T08:57:06;29.20;72.30
19968;DHT22;10145;49.152;9.282;2022-08-03T08:59:32;29.30;71.90
19968;DHT22;10145;49.152;9.282;2022-08-03T09:01:59;29.70;70.80
19968;DHT22;10145;49.152;9.282;2022-08-03T09:04:26;29.90;70.10
19968;DHT22;10145;49.152;9.282;2022-08-03T09:06:52;30.00;69.20
19968;DHT22;10145;49.152;9.282;2022-08-03T09:09:18;30.10;68.80
19968;DHT22;10145;49.152;9.282;2022-08-03T09:11:43;30.40;68.00
19968;DHT22;10145;49.152;9.282;2022-08-03T09:14:09;30.50;67.30
19968;DHT22;10145;49.152;9.282;2022-08-03T09:16:35;30.60;68.10
19968;DHT22;10145;49.152;9.282;2022-08-03T09:19:12;30.80;68.20
19968;DHT22;10145;49.152;9.282;2022-08-03T09:21:38;30.90;67.90
19968;DHT22;10145;49.152;9.282;2022-08-03T09:24:05;30.90;66.10
19968;DHT22;10145;49.152;9.282;2022-08-03T09:26:32;30.90;66.20
19968;DHT22;10145;49.152;9.282;2022-08-03T09:29:00;30.90;64.50
19968;DHT22;10145;49.152;9.282;2022-08-03T09:31:40;31.00;63.80
19968;DHT22;10145;49.152;9.282;2022-08-03T09:34:14;31.40;63.50
19968;DHT22;10145;49.152;9.282;2022-08-03T09:36:44;31.60;62.70
19968;DHT22;10145;49.152;9.282;2022-08-03T09:39:16;31.80;62.20
19968;DHT22;10145;49.152;9.282;2022-08-03T09:41:44;31.90;62.30
19968;DHT22;10145;49.152;9.282;2022-08-03T09:44:10;32.00;60.00
19968;DHT22;10145;49.152;9.282;2022-08-03T09:46:49;32.00;60.30
19968;DHT22;10145;49.152;9.282;2022-08-03T09:49:15;32.10;60.70
19968;DHT22;10145;49.152;9.282;2022-08-03T09:51:41;32.40;59.90
19968;DHT22;10145;49.152;9.282;2022-08-03T09:54:06;32.60;59.10
19968;DHT22;10145;49.152;9.282;2022-08-03T09:56:39;32.80;58.50
19968;DHT22;10145;49.152;9.282;2022-08-03T09:59:05;32.70;58.50
19968;DHT22;10145;49.152;9.282;2022-08-03T10:01:34;32.70;59.10
19968;DHT22;10145;49.152;9.282;2022-08-03T10:04:00;32.70;57.80
19968;DHT22;10145;49.152;9.282;2022-08-03T10:06:26;32.70;57.60
19968;DHT22;10145;49.152;9.282;2022-08-03T10:09:15;32.70;59.00
19968;DHT22;10145;49.152;9.282;2022-08-03T10:11:41;32.70;57.50
19968;DHT22;10145;49.152;9.282;2022-08-03T10:14:09;32.80;57.30
19968;DHT22;10145;49.152;9.282;2022-08-03T10:16:37;32.90;57.00
19968;DHT22;10145;49.152;9.282;2022-08-03T10:19:04;33.10;57.10
19968;DHT22;10145;49.152;9.282;2022-08-03T10:21:33;33.40;56.90
19968;DHT22;10145;49.152;9.282;2022-08-03T10:24:03;33.50;55.90
19968;DHT22;10145;49.152;9.282;2022-08-03T10:26:31;33.60;56.80
19968;DHT22;10145;49.152;9.282;2022-08-03T10:28:59;33.60;55.60
19968;DHT22;10145;49.152;9.282;2022-08-03T10:31:25;33.60;54.90
19968;DHT22;10145;49.152;9.282;2022-08-03T10:33:57;33.70;54.80
19968;DHT22;10145;49.152;9.282;2022-08-03T10:36:26;33.70;55.00
19968;DHT22;10145;49.152;9.282;2022-08-03T10:38:55;33.60;55.10
19968;DHT22;10145;49.152;9.282;2022-08-03T10:41:23;33.80;55.40
19968;DHT22;10145;49.152;9.282;2022-08-03T10:43:57;34.20;54.80
19968;DHT22;10145;49.152;9.282;2022-08-03T10:46:23;34.50;54.30
19968;DHT22;10145;49.152;9.282;2022-08-03T10:48:51;34.30;54.20
19968;DHT22;10145;49.152;9.282;2022-08-03T10:51:18;34.20;55.20
19968;DHT22;10145;49.152;9.282;2022-08-03T10:53:44;34.00;53.90
19968;DHT22;10145;49.152;9.282;2022-08-03T11:02:11;34.00;53.50
19968;DHT22;10145;49.152;9.282;2022-08-03T11:04:38;34.10;53.90
19968;DHT22;10145;49.152;9.282;2022-08-03T11:07:24;34.20;54.20
19968;DHT22;10145;49.152;9.282;2022-08-03T11:09:55;34.60;54.60
19968;DHT22;10145;49.152;9.282;2022-08-03T11:12:29;34.70;54.10
19968;DHT22;10145;49.152;9.282;2022-08-03T11:14:57;34.70;54.20
19968;DHT22;10145;49.152;9.282;2022-08-03T11:17:23;34.80;53.70
19968;DHT22;10145;49.152;9.282;2022-08-03T11:19:51;34.90;52.90
19968;DHT22;10145;49.152;9.282;2022-08-03T11:22:17;34.80;53.00
19968;DHT22;10145;49.152;9.282;2022-08-03T11:32:55;35.90;50.10
19968;DHT22;10145;49.152;9.282;2022-08-03T11:35:29;36.10;49.90
19968;DHT22;10145;49.152;9.282;2022-08-03T11:46:02;36.20;50.30
19968;DHT22;10145;49.152;9.282;2022-08-03T11:51:04;36.40;49.50
19968;DHT22;10145;49.152;9.282;2022-08-03T11:53:30;36.80;49.00
19968;DHT22;10145;49.152;9.282;2022-08-03T11:55:59;37.00;49.20
19968;DHT22;10145;49.152;9.282;2022-08-03T11:58:26;37.00;47.70
19968;DHT22;10145;49.152;9.282;2022-08-03T12:00:52;36.40;49.50
19968;DHT22;10145;49.152;9.282;2022-08-03T12:03:19;36.00;49.40
19968;DHT22;10145;49.152;9.282;2022-08-03T12:05:52;36.00;49.80
19968;DHT22;10145;49.152;9.282;2022-08-03T12:08:28;36.50;49.60
19968;DHT22;10145;49.152;9.282;2022-08-03T12:10:55;36.70;50.10
19968;DHT22;10145;49.152;9.282;2022-08-03T12:13:22;37.20;48.90
19968;DHT22;10145;49.152;9.282;2022-08-03T12:15:56;37.50;48.40
19968;DHT22;10145;49.152;9.282;2022-08-03T12:18:23;37.00;48.30
19968;DHT22;10145;49.152;9.282;2022-08-03T12:20:51;37.10;48.40
19968;DHT22;10145;49.152;9.282;2022-08-03T12:23:17;36.70;47.10
19968;DHT22;10145;49.152;9.282;2022-08-03T12:25:45;36.10;47.90
19968;DHT22;10145;49.152;9.282;2022-08-03T12:28:14;36.00;50.00
19968;DHT22;10145;49.152;9.282;2022-08-03T12:30:42;36.40;50.00
19968;DHT22;10145;49.152;9.282;2022-08-03T12:33:18;36.60;48.10
19968;DHT22;10145;49.152;9.282;2022-08-03T12:35:48;36.50;49.10
19968;DHT22;10145;49.152;9.282;2022-08-03T12:38:19;36.70;49.10
19968;DHT22;10145;49.152;9.282;2022-08-03T12:40:57;36.80;48.20
19968;DHT22;10145;49.152;9.282;2022-08-03T12:43:24;37.30;48.60
19968;DHT22;10145;49.152;9.282;2022-08-03T12:45:50;37.60;47.00
19968;DHT22;10145;49.152;9.282;2022-08-03T12:48:15;38.10;46.00
19968;DHT22;10145;49.152;9.282;2022-08-03T12:50:41;38.60;45.50
19968;DHT22;10145;49.152;9.282;2022-08-03T12:53:08;38.90;45.20
19968;DHT22;10145;49.152;9.282;2022-08-03T12:55:36;38.20;44.00
19968;DHT22;10145;49.152;9.282;2022-08-03T12:58:06;38.50;44.90
19968;DHT22;10145;49.152;9.282;2022-08-03T13:00:35;38.50;43.60
19968;DHT22;10145;49.152;9.282;2022-08-03T13:03:04;38.40;44.70
19968;DHT22;10145;49.152;9.282;2022-08-03T13:05:31;38.60;43.90
19968;DHT22;10145;49.152;9.282;2022-08-03T13:07:57;38.20;43.60
19968;DHT22;10145;49.152;9.282;2022-08-03T13:10:28;37.60;44.40
19968;DHT22;10145;49.152;9.282;2022-08-03T13:12:54;38.00;44.40
19968;DHT22;10145;49.152;9.282;2022-08-03T13:15:23;38.30;45.50
19968;DHT22;10145;49.152;9.282;2022-08-03T13:17:51;38.60;43.20
19968;DHT22;10145;49.152;9.282;2022-08-03T13:20:16;38.80;44.80
19968;DHT22;10145;49.152;9.282;2022-08-03T13:22:45;38.90;43.30
19968;DHT22;10145;49.152;9.282;2022-08-03T13:25:11;38.90;44.00
19968;DHT22;10145;49.152;9.282;2022-08-03T13:27:37;38.70;44.20
19968;DHT22;10145;49.152;9.282;2022-08-03T13:30:03;39.10;43.00
19968;DHT22;10145;49.152;9.282;2022-08-03T13:32:28;39.50;42.70
19968;DHT22;10145;49.152;9.282;2022-08-03T13:34:54;39.90;42.90
19968;DHT22;10145;49.152;9.282;2022-08-03T13:37:20;40.30;41.40
19968;DHT22;10145;49.152;9.282;2022-08-03T13:39:45;40.60;42.20
19968;DHT22;10145;49.152;9.282;2022-08-03T13:42:11;41.20;40.10
19968;DHT22;10145;49.152;9.282;2022-08-03T13:44:36;41.50;39.80
19968;DHT22;10145;49.152;9.282;2022-08-03T13:47:03;42.20;38.60
19968;DHT22;10145;49.152;9.282;2022-08-03T13:49:29;42.50;38.70
19968;DHT22;10145;49.152;9.282;2022-08-03T13:51:55;42.80;37.60
19968;DHT22;10145;49.152;9.282;2022-08-03T13:54:21;42.80;37.80
19968;DHT22;10145;49.152;9.282;2022-08-03T13:56:47;42.40;37.50
19968;DHT22;10145;49.152;9.282;2022-08-03T13:59:22;42.70;37.00
19968;DHT22;10145;49.152;9.282;2022-08-03T14:01:49;42.30;38.20
19968;DHT22;10145;49.152;9.282;2022-08-03T14:04:14;42.40;36.50
19968;DHT22;10145;49.152;9.282;2022-08-03T14:06:40;42.80;38.80
19968;DHT22;10145;49.152;9.282;2022-08-03T14:09:06;43.10;36.80
19968;DHT22;10145;49.152;9.282;2022-08-03T14:11:32;42.30;36.80
19968;DHT22;10145;49.152;9.282;2022-08-03T14:13:58;42.60;37.40
19968;DHT22;10145;49.152;9.282;2022-08-03T14:16:23;42.00;36.80
19968;DHT22;10145;49.152;9.282;2022-08-03T14:18:49;42.20;37.30
19968;DHT22;10145;49.152;9.282;2022-08-03T14:21:14;43.30;36.10
19968;DHT22;10145;49.152;9.282;2022-08-03T14:23:40;44.10;35.70
19968;DHT22;10145;49.152;9.282;2022-08-03T14:26:06;43.80;35.90
19968;DHT22;10145;49.152;9.282;2022-08-03T14:28:32;44.00;35.90
19968;DHT22;10145;49.152;9.282;2022-08-03T14:30:58;45.00;35.70
19968;DHT22;10145;49.152;9.282;2022-08-03T14:33:24;45.70;34.00
19968;DHT22;10145;49.152;9.282;2022-08-03T14:35:50;45.90;33.70
19968;DHT22;10145;49.152;9.282;2022-08-03T14:38:16;45.60;34.10
19968;DHT22;10145;49.152;9.282;2022-08-03T14:40:42;45.90;34.60
19968;DHT22;10145;49.152;9.282;2022-08-03T14:43:08;46.30;34.50
19968;DHT22;10145;49.152;9.282;2022-08-03T14:45:33;46.80;32.80
19968;DHT22;10145;49.152;9.282;2022-08-03T14:47:59;47.00;32.70
19968;DHT22;10145;49.152;9.282;2022-08-03T14:50:25;47.10;32.00
19968;DHT22;10145;49.152;9.282;2022-08-03T14:52:53;47.30;32.10
19968;DHT22;10145;49.152;9.282;2022-08-03T14:55:18;48.20;32.50
19968;DHT22;10145;49.152;9.282;2022-08-03T14:57:44;47.50;30.70
19968;DHT22;10145;49.152;9.282;2022-08-03T15:00:10;47.00;31.10
19968;DHT22;10145;49.152;9.282;2022-08-03T15:02:35;47.10;31.40
19968;DHT22;10145;49.152;9.282;2022-08-03T15:05:01;45.90;31.80
19968;DHT22;10145;49.152;9.282;2022-08-03T15:07:27;46.40;33.60
19968;DHT22;10145;49.152;9.282;2022-08-03T15:09:52;47.20;32.00
19968;DHT22;10145;49.152;9.282;2022-08-03T15:12:18;47.70;31.50
19968;DHT22;10145;49.152;9.282;2022-08-03T15:14:43;48.70;30.00
19968;DHT22;10145;49.152;9.282;2022-08-03T15:17:09;49.10;29.70
19968;DHT22;10145;49.152;9.282;2022-08-03T15:19:34;48.70;30.20
19968;DHT22;10145;49.152;9.282;2022-08-03T15:22:00;49.10;30.00
19968;DHT22;10145;49.152;9.282;2022-08-03T15:24:25;49.30;29.50
19968;DHT22;10145;49.152;9.282;2022-08-03T15:26:51;48.20;29.90
19968;DHT22;10145;49.152;9.282;2022-08-03T15:29:17;48.40;30.70
19968;DHT22;10145;49.152;9.282;2022-08-03T15:31:42;47.60;30.20
19968;DHT22;10145;49.152;9.282;2022-08-03T15:34:08;47.60;30.80
19968;DHT22;10145;49.152;9.282;2022-08-03T15:36:36;47.80;30.60
19968;DHT22;10145;49.152;9.282;2022-08-03T15:39:01;48.40;30.90
19968;DHT22;10145;49.152;9.282;2022-08-03T15:41:27;47.80;30.30
19968;DHT22;10145;49.152;9.282;2022-08-03T15:43:52;48.00;30.00
19968;DHT22;10145;49.152;9.282;2022-08-03T15:46:18;47.80;30.90
19968;DHT22;10145;49.152;9.282;2022-08-03T15:48:44;47.90;31.30
19968;DHT22;10145;49.152;9.282;2022-08-03T15:51:10;48.10;30.50
19968;DHT22;10145;49.152;9.282;2022-08-03T15:53:36;47.90;31.20
19968;DHT22;10145;49.152;9.282;2022-08-03T15:56:02;48.60;30.20
19968;DHT22;10145;49.152;9.282;2022-08-03T15:58:28;48.20;30.20
19968;DHT22;10145;49.152;9.282;2022-08-03T16:00:58;48.00;30.80
19968;DHT22;10145;49.152;9.282;2022-08-03T16:03:24;47.50;31.40
19968;DHT22;10145;49.152;9.282;2022-08-03T16:05:50;47.20;32.60
19968;DHT22;10145;49.152;9.282;2022-08-03T16:08:16;46.30;31.20
19968;DHT22;10145;49.152;9.282;2022-08-03T16:10:41;46.30;31.60
19968;DHT22;10145;49.152;9.282;2022-08-03T16:13:07;46.70;32.30
19968;DHT22;10145;49.152;9.282;2022-08-03T16:15:33;46.90;31.70
19968;DHT22;10145;49.152;9.282;2022-08-03T16:17:58;46.70;32.10
19968;DHT22;10145;49.152;9.282;2022-08-03T16:20:24;46.80;31.40
19968;DHT22;10145;49.152;9.282;2022-08-03T16:22:50;47.40;31.60
19968;DHT22;10145;49.152;9.282;2022-08-03T16:25:16;47.60;31.90
19968;DHT22;10145;49.152;9.282;2022-08-03T16:27:42;47.60;31.30
19968;DHT22;10145;49.152;9.282;2022-08-03T16:30:09;47.50;30.30
19968;DHT22;10145;49.152;9.282;2022-08-03T16:32:35;47.50;30.20
19968;DHT22;10145;49.152;9.282;2022-08-03T16:35:04;46.70;31.00
19968;DHT22;10145;49.152;9.282;2022-08-03T16:37:30;45.60;32.20
19968;DHT22;10145;49.152;9.282;2022-08-03T16:39:55;45.60;32.70
19968;DHT22;10145;49.152;9.282;2022-08-03T16:42:21;45.20;32.70
19968;DHT22;10145;49.152;9.282;2022-08-03T16:44:47;43.80;33.10
19968;DHT22;10145;49.152;9.282;2022-08-03T16:47:13;42.00;35.00
19968;DHT22;10145;49.152;9.282;2022-08-03T16:49:38;40.40;36.80
19968;DHT22;10145;49.152;9.282;2022-08-03T16:52:04;39.00;39.00
19968;DHT22;10145;49.152;9.282;2022-08-03T16:54:29;38.10;41.50
19968;DHT22;10145;49.152;9.282;2022-08-03T16:56:57;37.60;41.50
19968;DHT22;10145;49.152;9.282;2022-08-03T16:59:23;37.20;41.30
19968;DHT22;10145;49.152;9.282;2022-08-03T17:01:48;36.80;42.70
19968;DHT22;10145;49.152;9.282;2022-08-03T17:04:14;36.50;42.80
19968;DHT22;10145;49.152;9.282;2022-08-03T17:06:41;36.20;44.60
19968;DHT22;10145;49.152;9.282;2022-08-03T17:09:09;36.00;45.00
19968;DHT22;10145;49.152;9.282;2022-08-03T17:11:45;35.70;46.20
19968;DHT22;10145;49.152;9.282;2022-08-03T17:14:12;35.50;47.80
19968;DHT22;10145;49.152;9.282;2022-08-03T17:16:41;35.10;46.60
19968;DHT22;10145;49.152;9.282;2022-08-03T17:19:07;34.80;48.80
19968;DHT22;10145;49.152;9.282;2022-08-03T17:21:35;34.60;47.60
19968;DHT22;10145;49.152;9.282;2022-08-03T17:24:27;34.30;49.00
19968;DHT22;10145;49.152;9.282;2022-08-03T17:27:12;34.10;49.30
19968;DHT22;10145;49.152;9.282;2022-08-03T17:29:39;33.90;49.80
19968;DHT22;10145;49.152;9.282;2022-08-03T17:32:09;33.50;48.70
19968;DHT22;10145;49.152;9.282;2022-08-03T17:34:35;33.30;50.20
19968;DHT22;10145;49.152;9.282;2022-08-03T17:37:02;33.10;50.40
19968;DHT22;10145;49.152;9.282;2022-08-03T17:39:28;32.90;50.10
19968;DHT22;10145;49.152;9.282;2022-08-03T17:41:55;32.80;49.50
19968;DHT22;10145;49.152;9.282;2022-08-03T17:44:25;32.80;50.60
19968;DHT22;10145;49.152;9.282;2022-08-03T17:46:52;32.70;50.60
19968;DHT22;10145;49.152;9.282;2022-08-03T17:49:17;32.50;51.40
19968;DHT22;10145;49.152;9.282;2022-08-03T17:51:49;32.40;52.80
19968;DHT22;10145;49.152;9.282;2022-08-03T17:54:19;32.20;52.30
19968;DHT22;10145;49.152;9.282;2022-08-03T17:59:36;32.00;51.20
19968;DHT22;10145;49.152;9.282;2022-08-03T18:05:35;31.70;53.60
19968;DHT22;10145;49.152;9.282;2022-08-03T18:08:04;31.50;53.70
19968;DHT22;10145;49.152;9.282;2022-08-03T18:10:34;31.30;55.50
19968;DHT22;10145;49.152;9.282;2022-08-03T18:13:08;31.10;56.60
19968;DHT22;10145;49.152;9.282;2022-08-03T18:16:14;30.90;56.50
19968;DHT22;10145;49.152;9.282;2022-08-03T18:18:44;30.60;57.40
19968;DHT22;10145;49.152;9.282;2022-08-03T18:21:12;30.40;58.20
19968;DHT22;10145;49.152;9.282;2022-08-03T18:23:38;30.20;58.40
19968;DHT22;10145;49.152;9.282;2022-08-03T18:26:07;29.90;57.90
19968;DHT22;10145;49.152;9.282;2022-08-03T18:28:34;29.80;59.10
19968;DHT22;10145;49.152;9.282;2022-08-03T18:31:01;29.60;59.20
19968;DHT22;10145;49.152;9.282;2022-08-03T18:33:27;29.40;60.10
19968;DHT22;10145;49.152;9.282;2022-08-03T18:35:55;29.20;61.80
19968;DHT22;10145;49.152;9.282;2022-08-03T18:38:22;29.00;63.60
19968;DHT22;10145;49.152;9.282;2022-08-03T18:40:48;28.80;64.00
19968;DHT22;10145;49.152;9.282;2022-08-03T18:43:14;28.60;64.60
19968;DHT22;10145;49.152;9.282;2022-08-03T18:45:42;28.50;65.40
19968;DHT22;10145;49.152;9.282;2022-08-03T18:48:24;28.30;65.90
19968;DHT22;10145;49.152;9.282;2022-08-03T18:50:59;28.00;66.30
19968;DHT22;10145;49.152;9.282;2022-08-03T18:53:44;27.90;66.70
19968;DHT22;10145;49.152;9.282;2022-08-03T18:58:56;27.50;66.80
19968;DHT22;10145;49.152;9.282;2022-08-03T19:01:50;27.30;66.90
19968;DHT22;10145;49.152;9.282;2022-08-03T19:04:37;27.30;67.50
19968;DHT22;10145;49.152;9.282;2022-08-03T19:07:08;27.00;67.10
19968;DHT22;10145;49.152;9.282;2022-08-03T19:12:23;26.90;67.80
19968;DHT22;10145;49.152;9.282;2022-08-03T19:14:55;26.70;68.60
19968;DHT22;10145;49.152;9.282;2022-08-03T19:17:25;26.60;69.20
19968;DHT22;10145;49.152;9.282;2022-08-03T19:19:53;26.50;69.30
19968;DHT22;10145;49.152;9.282;2022-08-03T19:22:19;26.30;69.70
19968;DHT22;10145;49.152;9.282;2022-08-03T19:24:46;26.20;70.60
19968;DHT22;10145;49.152;9.282;2022-08-03T19:27:13;26.10;70.70
19968;DHT22;10145;49.152;9.282;2022-08-03T19:29:44;26.00;70.80
19968;DHT22;10145;49.152;9.282;2022-08-03T19:32:13;25.90;71.40
19968;DHT22;10145;49.152;9.282;2022-08-03T19:34:39;25.90;71.80
19968;DHT22;10145;49.152;9.282;2022-08-03T19:37:10;25.70;72.50
19968;DHT22;10145;49.152;9.282;2022-08-03T19:39:36;25.70;73.20
19968;DHT22;10145;49.152;9.282;2022-08-03T19:42:05;25.60;73.90
19968;DHT22;10145;49.152;9.282;2022-08-03T19:44:40;25.60;75.60
19968;DHT22;10145;49.152;9.282;2022-08-03T19:47:09;25.50;75.30
19968;DHT22;10145;49.152;9.282;2022-08-03T19:49:38;25.50;75.90
19968;DHT22;10145;49.152;9.282;2022-08-03T19:52:14;25.40;77.00
19968;DHT22;10145;49.152;9.282;2022-08-03T19:54:43;25.30;78.20
19968;DHT22;10145;49.152;9.282;2022-08-03T19:57:17;25.20;78.20
19968;DHT22;10145;49.152;9.282;2022-08-03T19:59:43;25.30;78.50
19968;DHT22;10145;49.152;9.282;2022-08-03T20:02:10;25.20;78.30
19968;DHT22;10145;49.152;9.282;2022-08-03T20:04:36;24.90;78.10
19968;DHT22;10145;49.152;9.282;2022-08-03T20:07:02;25.00;78.20
19968;DHT22;10145;49.152;9.282;2022-08-03T20:09:28;24.90;78.50
19968;DHT22;10145;49.152;9.282;2022-08-03T20:11:54;24.70;79.20